sensor_id;sensor_type;location;lat;lon;timestamp;P1;durP1;ratioP1;P2;durP2;ratioP2
11935;SDS011;6027;48.576;9.180;2022-11-20T00:00:24;5.37;;;4.80;;
11935;SDS011;6027;48.576;9.180;2022-11-20T00:02:49;6.50;;;4.83;;
11935;SDS011;6027;48.576;9.180;2022-11-20T00:05:15;10.03;;;7.10;;
11935;SDS011;6027;48.576;9.180;2022-11-20T00:07:40;6.77;;;5.90;;
11935;SDS011;6027;48.576;9.180;2022-11-20T00:10:06;8.07;;;7.27;;
11935;SDS011;6027;48.576;9.180;2022-11-20T00:12:32;10.80;;;8.43;;
11935;SDS011;6027;48.576;9.180;2022-11-20T00:14:58;9.30;;;6.73;;
11935;SDS011;6027;48.576;9.180;2022-11-20T00:17:23;6.53;;;5.87;;
11935;SDS011;6027;48.576;9.180;2022-11-20T00:19:48;6.93;;;6.17;;
11935;SDS011;6027;48.576;9.180;2022-11-20T00:22:14;6.07;;;5.47;;
11935;SDS011;6027;48.576;9.180;2022-11-20T00:24:39;4.30;;;3.60;;
11935;SDS011;6027;48.576;9.180;2022-11-20T00:27:05;3.73;;;3.30;;
11935;SDS011;6027;48.576;9.180;2022-11-20T00:29:30;4.87;;;4.40;;
11935;SDS011;6027;48.576;9.180;2022-11-20T00:31:55;6.13;;;4.13;;
11935;SDS011;6027;48.576;9.180;2022-11-20T00:34:21;5.60;;;5.10;;
11935;SDS011;6027;48.576;9.180;2022-11-20T00:36:46;6.23;;;4.20;;
11935;SDS011;6027;48.576;9.180;2022-11-20T00:41:39;5.07;;;4.50;;
11935;SDS011;6027;48.576;9.180;2022-11-20T00:44:05;4.33;;;3.93;;
11935;SDS011;6027;48.576;9.180;2022-11-20T00:46:30;5.20;;;3.73;;
11935;SDS011;6027;48.576;9.180;2022-11-20T00:48:56;6.50;;;5.80;;
11935;SDS011;6027;48.576;9.180;2022-11-20T00:51:23;4.23;;;3.40;;
11935;SDS011;6027;48.576;9.180;2022-11-20T00:53:50;4.77;;;4.10;;
11935;SDS011;6027;48.576;9.180;2022-11-20T00:56:17;6.07;;;5.10;;
11935;SDS011;6027;48.576;9.180;2022-11-20T00:58:45;6.03;;;4.00;;
11935;SDS011;6027;48.576;9.180;2022-11-20T01:01:16;5.10;;;4.17;;
11935;SDS011;6027;48.576;9.180;2022-11-20T01:03:45;5.40;;;4.53;;
11935;SDS011;6027;48.576;9.180;2022-11-20T01:06:14;7.40;;;5.57;;
11935;SDS011;6027;48.576;9.180;2022-11-20T01:08:44;12.23;;;8.30;;
11935;SDS011;6027;48.576;9.180;2022-11-20T01:11:14;6.80;;;5.47;;
11935;SDS011;6027;48.576;9.180;2022-11-20T01:13:42;10.40;;;6.43;;
11935;SDS011;6027;48.576;9.180;2022-11-20T01:16:17;11.10;;;6.80;;
11935;SDS011;6027;48.576;9.180;2022-11-20T01:18:49;8.70;;;6.00;;
11935;SDS011;6027;48.576;9.180;2022-11-20T01:21:26;5.60;;;4.10;;
11935;SDS011;6027;48.576;9.180;2022-11-20T01:23:56;4.03;;;3.60;;
11935;SDS011;6027;48.576;9.180;2022-11-20T01:26:23;3.77;;;3.40;;
11935;SDS011;6027;48.576;9.180;2022-11-20T01:28:54;3.67;;;3.20;;
11935;SDS011;6027;48.576;9.180;2022-11-20T01:31:27;4.43;;;3.57;;
11935;SDS011;6027;48.576;9.180;2022-11-20T01:33:55;4.43;;;3.70;;
11935;SDS011;6027;48.576;9.180;2022-11-20T01:36:25;4.67;;;4.23;;
11935;SDS011;6027;48.576;9.180;2022-11-20T01:38:53;6.03;;;3.97;;
11935;SDS011;6027;48.576;9.180;2022-11-20T01:41:20;4.87;;;3.73;;
11935;SDS011;6027;48.576;9.180;2022-11-20T01:44:05;9.83;;;6.50;;
11935;SDS011;6027;48.576;9.180;2022-11-20T01:46:37;5.93;;;4.80;;
11935;SDS011;6027;48.576;9.180;2022-11-20T01:51:48;6.87;;;5.40;;
11935;SDS011;6027;48.576;9.180;2022-11-20T01:54:23;7.13;;;5.53;;
11935;SDS011;6027;48.576;9.180;2022-11-20T01:56:56;6.87;;;5.17;;
11935;SDS011;6027;48.576;9.180;2022-11-20T01:59:24;5.13;;;4.10;;
11935;SDS011;6027;48.576;9.180;2022-11-20T02:01:53;5.03;;;4.53;;
11935;SDS011;6027;48.576;9.180;2022-11-20T02:04:18;5.43;;;4.50;;
11935;SDS011;6027;48.576;9.180;2022-11-20T02:06:46;5.27;;;4.50;;
11935;SDS011;6027;48.576;9.180;2022-11-20T02:09:15;5.70;;;4.40;;
11935;SDS011;6027;48.576;9.180;2022-11-20T02:11:41;5.53;;;4.70;;
11935;SDS011;6027;48.576;9.180;2022-11-20T02:14:07;7.57;;;4.87;;
11935;SDS011;6027;48.576;9.180;2022-11-20T02:16:34;4.33;;;3.57;;
11935;SDS011;6027;48.576;9.180;2022-11-20T02:19:04;5.13;;;3.80;;
11935;SDS011;6027;48.576;9.180;2022-11-20T02:21:56;5.30;;;3.40;;
11935;SDS011;6027;48.576;9.180;2022-11-20T02:24:25;3.77;;;3.47;;
11935;SDS011;6027;48.576;9.180;2022-11-20T02:29:33;5.03;;;4.37;;
11935;SDS011;6027;48.576;9.180;2022-11-20T02:32:03;5.57;;;4.03;;
11935;SDS011;6027;48.576;9.180;2022-11-20T02:34:29;5.43;;;4.60;;
11935;SDS011;6027;48.576;9.180;2022-11-20T02:36:55;4.63;;;4.20;;
11935;SDS011;6027;48.576;9.180;2022-11-20T02:39:22;6.47;;;5.03;;
11935;SDS011;6027;48.576;9.180;2022-11-20T02:41:50;5.03;;;4.60;;
11935;SDS011;6027;48.576;9.180;2022-11-20T02:44:18;5.13;;;4.73;;
11935;SDS011;6027;48.576;9.180;2022-11-20T02:46:44;5.73;;;5.23;;
11935;SDS011;6027;48.576;9.180;2022-11-20T02:49:09;6.87;;;5.30;;
11935;SDS011;6027;48.576;9.180;2022-11-20T02:51:34;6.23;;;5.17;;
11935;SDS011;6027;48.576;9.180;2022-11-20T02:54:00;5.93;;;5.33;;
11935;SDS011;6027;48.576;9.180;2022-11-20T02:56:26;5.10;;;4.70;;
11935;SDS011;6027;48.576;9.180;2022-11-20T02:58:52;5.27;;;4.77;;
11935;SDS011;6027;48.576;9.180;2022-11-20T03:01:17;5.53;;;5.03;;
11935;SDS011;6027;48.576;9.180;2022-11-20T03:03:43;5.63;;;5.13;;
11935;SDS011;6027;48.576;9.180;2022-11-20T03:06:08;6.07;;;5.57;;
11935;SDS011;6027;48.576;9.180;2022-11-20T03:08:34;5.97;;;5.47;;
11935;SDS011;6027;48.576;9.180;2022-11-20T03:11:03;6.10;;;5.47;;
11935;SDS011;6027;48.576;9.180;2022-11-20T03:13:31;6.23;;;5.33;;
11935;SDS011;6027;48.576;9.180;2022-11-20T03:15:57;6.73;;;5.10;;
11935;SDS011;6027;48.576;9.180;2022-11-20T03:18:22;5.87;;;5.33;;
11935;SDS011;6027;48.576;9.180;2022-11-20T03:20:47;5.47;;;4.97;;
11935;SDS011;6027;48.576;9.180;2022-11-20T03:23:13;6.77;;;5.23;;
11935;SDS011;6027;48.576;9.180;2022-11-20T03:25:39;5.17;;;4.77;;
11935;SDS011;6027;48.576;9.180;2022-11-20T03:28:05;5.33;;;4.83;;
11935;SDS011;6027;48.576;9.180;2022-11-20T03:30:30;5.40;;;4.87;;
11935;SDS011;6027;48.576;9.180;2022-11-20T03:32:55;4.70;;;4.30;;
11935;SDS011;6027;48.576;9.180;2022-11-20T03:35:21;4.90;;;4.33;;
11935;SDS011;6027;48.576;9.180;2022-11-20T03:37:46;5.33;;;4.20;;
11935;SDS011;6027;48.576;9.180;2022-11-20T03:40:12;4.53;;;4.13;;
11935;SDS011;6027;48.576;9.180;2022-11-20T03:42:37;4.40;;;4.03;;
11935;SDS011;6027;48.576;9.180;2022-11-20T03:45:13;4.80;;;3.87;;
11935;SDS011;6027;48.576;9.180;2022-11-20T03:47:40;4.50;;;3.90;;
11935;SDS011;6027;48.576;9.180;2022-11-20T03:50:06;5.70;;;3.60;;
11935;SDS011;6027;48.576;9.180;2022-11-20T03:52:32;4.20;;;3.80;;
11935;SDS011;6027;48.576;9.180;2022-11-20T03:54:57;4.07;;;3.60;;
11935;SDS011;6027;48.576;9.180;2022-11-20T03:57:23;5.70;;;3.80;;
11935;SDS011;6027;48.576;9.180;2022-11-20T03:59:48;3.80;;;3.50;;
11935;SDS011;6027;48.576;9.180;2022-11-20T04:02:14;3.80;;;3.50;;
11935;SDS011;6027;48.576;9.180;2022-11-20T04:04:39;3.80;;;3.50;;
11935;SDS011;6027;48.576;9.180;2022-11-20T04:07:05;4.07;;;3.70;;
11935;SDS011;6027;48.576;9.180;2022-11-20T04:09:30;3.63;;;3.33;;
11935;SDS011;6027;48.576;9.180;2022-11-20T04:11:55;3.87;;;3.30;;
11935;SDS011;6027;48.576;9.180;2022-11-20T04:14:21;3.50;;;3.20;;
11935;SDS011;6027;48.576;9.180;2022-11-20T04:16:46;3.50;;;3.20;;
11935;SDS011;6027;48.576;9.180;2022-11-20T04:19:13;3.57;;;3.27;;
11935;SDS011;6027;48.576;9.180;2022-11-20T04:21:40;3.80;;;3.20;;
11935;SDS011;6027;48.576;9.180;2022-11-20T04:24:06;3.93;;;3.27;;
11935;SDS011;6027;48.576;9.180;2022-11-20T04:26:32;3.70;;;3.30;;
11935;SDS011;6027;48.576;9.180;2022-11-20T04:28:58;3.50;;;3.20;;
11935;SDS011;6027;48.576;9.180;2022-11-20T04:31:28;5.53;;;3.40;;
11935;SDS011;6027;48.576;9.180;2022-11-20T04:34:00;3.40;;;3.07;;
11935;SDS011;6027;48.576;9.180;2022-11-20T04:36:27;3.47;;;2.93;;
11935;SDS011;6027;48.576;9.180;2022-11-20T04:38:55;3.33;;;3.10;;
11935;SDS011;6027;48.576;9.180;2022-11-20T04:41:22;3.53;;;2.83;;
11935;SDS011;6027;48.576;9.180;2022-11-20T04:43:49;3.10;;;2.57;;
11935;SDS011;6027;48.576;9.180;2022-11-20T04:46:16;3.60;;;2.67;;
11935;SDS011;6027;48.576;9.180;2022-11-20T04:48:43;3.43;;;2.63;;
11935;SDS011;6027;48.576;9.180;2022-11-20T04:51:09;2.93;;;2.63;;
11935;SDS011;6027;48.576;9.180;2022-11-20T04:53:34;3.03;;;2.70;;
11935;SDS011;6027;48.576;9.180;2022-11-20T04:56:00;3.43;;;2.80;;
11935;SDS011;6027;48.576;9.180;2022-11-20T04:58:28;2.50;;;2.30;;
11935;SDS011;6027;48.576;9.180;2022-11-20T05:00:53;2.23;;;2.07;;
11935;SDS011;6027;48.576;9.180;2022-11-20T05:03:19;2.60;;;2.23;;
11935;SDS011;6027;48.576;9.180;2022-11-20T05:05:44;3.83;;;2.53;;
11935;SDS011;6027;48.576;9.180;2022-11-20T05:08:09;2.73;;;2.30;;
11935;SDS011;6027;48.576;9.180;2022-11-20T05:10:35;2.87;;;2.27;;
11935;SDS011;6027;48.576;9.180;2022-11-20T05:13:00;3.07;;;2.20;;
11935;SDS011;6027;48.576;9.180;2022-11-20T05:15:26;2.43;;;2.20;;
11935;SDS011;6027;48.576;9.180;2022-11-20T05:17:51;3.20;;;2.60;;
11935;SDS011;6027;48.576;9.180;2022-11-20T05:20:17;2.57;;;2.37;;
11935;SDS011;6027;48.576;9.180;2022-11-20T05:22:44;2.73;;;2.03;;
11935;SDS011;6027;48.576;9.180;2022-11-20T05:25:09;3.17;;;2.40;;
11935;SDS011;6027;48.576;9.180;2022-11-20T05:27:35;2.87;;;2.10;;
11935;SDS011;6027;48.576;9.180;2022-11-20T05:30:02;2.47;;;2.27;;
11935;SDS011;6027;48.576;9.180;2022-11-20T05:32:28;2.60;;;2.13;;
11935;SDS011;6027;48.576;9.180;2022-11-20T05:34:53;3.97;;;2.20;;
11935;SDS011;6027;48.576;9.180;2022-11-20T05:37:19;3.60;;;2.10;;
11935;SDS011;6027;48.576;9.180;2022-11-20T05:39:44;2.67;;;2.20;;
11935;SDS011;6027;48.576;9.180;2022-11-20T05:42:09;2.27;;;2.07;;
11935;SDS011;6027;48.576;9.180;2022-11-20T05:44:53;2.40;;;2.20;;
11935;SDS011;6027;48.576;9.180;2022-11-20T05:47:19;2.13;;;1.97;;
11935;SDS011;6027;48.576;9.180;2022-11-20T05:49:44;2.13;;;1.93;;
11935;SDS011;6027;48.576;9.180;2022-11-20T05:52:10;2.20;;;2.00;;
11935;SDS011;6027;48.576;9.180;2022-11-20T05:54:35;2.20;;;2.00;;
11935;SDS011;6027;48.576;9.180;2022-11-20T05:57:01;2.33;;;2.00;;
11935;SDS011;6027;48.576;9.180;2022-11-20T05:59:26;2.37;;;2.17;;
11935;SDS011;6027;48.576;9.180;2022-11-20T06:01:52;2.20;;;2.00;;
11935;SDS011;6027;48.576;9.180;2022-11-20T06:04:17;4.27;;;2.30;;
11935;SDS011;6027;48.576;9.180;2022-11-20T06:06:42;2.37;;;2.17;;
11935;SDS011;6027;48.576;9.180;2022-11-20T06:09:08;2.03;;;1.83;;
11935;SDS011;6027;48.576;9.180;2022-11-20T06:11:33;2.70;;;2.07;;
11935;SDS011;6027;48.576;9.180;2022-11-20T06:13:59;2.80;;;1.80;;
11935;SDS011;6027;48.576;9.180;2022-11-20T06:16:25;3.20;;;2.20;;
11935;SDS011;6027;48.576;9.180;2022-11-20T06:18:50;2.03;;;1.90;;
11935;SDS011;6027;48.576;9.180;2022-11-20T06:21:19;3.40;;;2.40;;
11935;SDS011;6027;48.576;9.180;2022-11-20T06:23:46;2.90;;;2.10;;
11935;SDS011;6027;48.576;9.180;2022-11-20T06:26:14;2.07;;;1.80;;
11935;SDS011;6027;48.576;9.180;2022-11-20T06:28:47;2.07;;;1.87;;
11935;SDS011;6027;48.576;9.180;2022-11-20T06:31:13;2.33;;;2.13;;
11935;SDS011;6027;48.576;9.180;2022-11-20T06:33:40;4.37;;;2.57;;
11935;SDS011;6027;48.576;9.180;2022-11-20T06:36:07;3.23;;;2.40;;
11935;SDS011;6027;48.576;9.180;2022-11-20T06:38:32;2.63;;;2.23;;
11935;SDS011;6027;48.576;9.180;2022-11-20T06:40:58;16.27;;;14.57;;
11935;SDS011;6027;48.576;9.180;2022-11-20T06:43:24;7.27;;;6.57;;
11935;SDS011;6027;48.576;9.180;2022-11-20T06:45:54;10.37;;;9.37;;
11935;SDS011;6027;48.576;9.180;2022-11-20T06:48:21;13.50;;;11.13;;
11935;SDS011;6027;48.576;9.180;2022-11-20T06:50:48;3.00;;;2.80;;
11935;SDS011;6027;48.576;9.180;2022-11-20T06:53:13;4.30;;;1.97;;
11935;SDS011;6027;48.576;9.180;2022-11-20T06:55:42;2.80;;;2.30;;
11935;SDS011;6027;48.576;9.180;2022-11-20T06:58:09;2.87;;;2.60;;
11935;SDS011;6027;48.576;9.180;2022-11-20T07:00:35;3.13;;;2.60;;
11935;SDS011;6027;48.576;9.180;2022-11-20T07:03:03;2.10;;;2.00;;
11935;SDS011;6027;48.576;9.180;2022-11-20T07:05:29;3.23;;;2.57;;
11935;SDS011;6027;48.576;9.180;2022-11-20T07:07:55;2.83;;;2.40;;
11935;SDS011;6027;48.576;9.180;2022-11-20T07:10:21;3.57;;;3.10;;
11935;SDS011;6027;48.576;9.180;2022-11-20T07:12:50;4.60;;;4.20;;
11935;SDS011;6027;48.576;9.180;2022-11-20T07:15:19;4.53;;;4.13;;
11935;SDS011;6027;48.576;9.180;2022-11-20T07:17:46;4.10;;;3.70;;
11935;SDS011;6027;48.576;9.180;2022-11-20T07:20:12;3.03;;;2.57;;
11935;SDS011;6027;48.576;9.180;2022-11-20T07:22:38;3.20;;;2.40;;
11935;SDS011;6027;48.576;9.180;2022-11-20T07:25:06;2.63;;;2.43;;
11935;SDS011;6027;48.576;9.180;2022-11-20T07:27:33;2.60;;;2.40;;
11935;SDS011;6027;48.576;9.180;2022-11-20T07:29:58;2.90;;;2.43;;
11935;SDS011;6027;48.576;9.180;2022-11-20T07:32:24;2.40;;;2.20;;
11935;SDS011;6027;48.576;9.180;2022-11-20T07:34:50;2.20;;;2.00;;
11935;SDS011;6027;48.576;9.180;2022-11-20T07:37:15;2.57;;;2.37;;
11935;SDS011;6027;48.576;9.180;2022-11-20T07:39:41;3.17;;;2.87;;
11935;SDS011;6027;48.576;9.180;2022-11-20T07:42:07;2.63;;;2.10;;
11935;SDS011;6027;48.576;9.180;2022-11-20T07:44:33;2.57;;;1.97;;
11935;SDS011;6027;48.576;9.180;2022-11-20T07:46:58;2.03;;;1.90;;
11935;SDS011;6027;48.576;9.180;2022-11-20T07:49:24;2.70;;;2.00;;
11935;SDS011;6027;48.576;9.180;2022-11-20T07:51:50;2.00;;;1.90;;
11935;SDS011;6027;48.576;9.180;2022-11-20T07:54:16;2.40;;;2.07;;
11935;SDS011;6027;48.576;9.180;2022-11-20T07:56:42;2.70;;;2.27;;
11935;SDS011;6027;48.576;9.180;2022-11-20T07:59:07;2.20;;;2.00;;
11935;SDS011;6027;48.576;9.180;2022-11-20T08:01:33;2.10;;;1.90;;
11935;SDS011;6027;48.576;9.180;2022-11-20T08:03:58;3.17;;;2.13;;
11935;SDS011;6027;48.576;9.180;2022-11-20T08:08:51;5.20;;;4.70;;
11935;SDS011;6027;48.576;9.180;2022-11-20T08:11:16;5.30;;;4.80;;
11935;SDS011;6027;48.576;9.180;2022-11-20T08:14:01;4.60;;;4.20;;
11935;SDS011;6027;48.576;9.180;2022-11-20T08:16:42;2.30;;;2.10;;
11935;SDS011;6027;48.576;9.180;2022-11-20T08:19:09;2.37;;;1.93;;
11935;SDS011;6027;48.576;9.180;2022-11-20T08:21:35;2.23;;;1.93;;
11935;SDS011;6027;48.576;9.180;2022-11-20T08:24:00;2.20;;;2.00;;
11935;SDS011;6027;48.576;9.180;2022-11-20T08:26:26;2.20;;;1.87;;
11935;SDS011;6027;48.576;9.180;2022-11-20T08:28:55;1.83;;;1.50;;
11935;SDS011;6027;48.576;9.180;2022-11-20T08:31:22;1.80;;;1.60;;
11935;SDS011;6027;48.576;9.180;2022-11-20T08:33:49;4.77;;;4.37;;
11935;SDS011;6027;48.576;9.180;2022-11-20T08:36:15;3.50;;;1.50;;
11935;SDS011;6027;48.576;9.180;2022-11-20T08:38:41;1.50;;;1.40;;
11935;SDS011;6027;48.576;9.180;2022-11-20T08:41:06;3.07;;;1.90;;
11935;SDS011;6027;48.576;9.180;2022-11-20T08:43:55;2.00;;;1.67;;
11935;SDS011;6027;48.576;9.180;2022-11-20T08:46:26;1.70;;;1.60;;
11935;SDS011;6027;48.576;9.180;2022-11-20T08:48:55;1.70;;;1.40;;
11935;SDS011;6027;48.576;9.180;2022-11-20T08:51:21;2.83;;;2.10;;
11935;SDS011;6027;48.576;9.180;2022-11-20T08:53:46;2.77;;;1.70;;
11935;SDS011;6027;48.576;9.180;2022-11-20T08:56:13;3.47;;;1.67;;
11935;SDS011;6027;48.576;9.180;2022-11-20T08:58:39;3.63;;;3.23;;
11935;SDS011;6027;48.576;9.180;2022-11-20T09:01:05;4.70;;;2.77;;
11935;SDS011;6027;48.576;9.180;2022-11-20T09:03:30;2.23;;;1.80;;
11935;SDS011;6027;48.576;9.180;2022-11-20T09:06:02;1.93;;;1.57;;
11935;SDS011;6027;48.576;9.180;2022-11-20T09:08:30;1.43;;;1.30;;
11935;SDS011;6027;48.576;9.180;2022-11-20T09:10:57;2.90;;;2.10;;
11935;SDS011;6027;48.576;9.180;2022-11-20T09:13:23;2.30;;;2.10;;
11935;SDS011;6027;48.576;9.180;2022-11-20T09:15:53;2.00;;;1.80;;
11935;SDS011;6027;48.576;9.180;2022-11-20T09:18:20;2.23;;;1.57;;
11935;SDS011;6027;48.576;9.180;2022-11-20T09:20:46;2.57;;;1.63;;
11935;SDS011;6027;48.576;9.180;2022-11-20T09:23:11;1.73;;;1.63;;
11935;SDS011;6027;48.576;9.180;2022-11-20T09:25:36;2.13;;;1.80;;
11935;SDS011;6027;48.576;9.180;2022-11-20T09:28:02;2.40;;;2.20;;
11935;SDS011;6027;48.576;9.180;2022-11-20T09:30:27;2.80;;;2.30;;
11935;SDS011;6027;48.576;9.180;2022-11-20T09:32:53;2.57;;;1.70;;
11935;SDS011;6027;48.576;9.180;2022-11-20T09:35:19;2.23;;;2.03;;
11935;SDS011;6027;48.576;9.180;2022-11-20T09:37:46;1.90;;;1.70;;
11935;SDS011;6027;48.576;9.180;2022-11-20T09:43:10;4.00;;;2.10;;
11935;SDS011;6027;48.576;9.180;2022-11-20T09:54:16;2.33;;;2.00;;
11935;SDS011;6027;48.576;9.180;2022-11-20T09:56:48;2.10;;;1.90;;
11935;SDS011;6027;48.576;9.180;2022-11-20T09:59:26;1.60;;;1.50;;
11935;SDS011;6027;48.576;9.180;2022-11-20T10:01:58;2.17;;;1.80;;
11935;SDS011;6027;48.576;9.180;2022-11-20T10:04:26;2.33;;;1.90;;
11935;SDS011;6027;48.576;9.180;2022-11-20T10:09:32;1.73;;;1.50;;
11935;SDS011;6027;48.576;9.180;2022-11-20T10:14:36;2.53;;;1.67;;
11935;SDS011;6027;48.576;9.180;2022-11-20T10:17:16;2.20;;;2.00;;
11935;SDS011;6027;48.576;9.180;2022-11-20T10:22:53;1.70;;;1.60;;
11935;SDS011;6027;48.576;9.180;2022-11-20T10:25:32;1.70;;;1.60;;
11935;SDS011;6027;48.576;9.180;2022-11-20T10:30:55;1.73;;;1.63;;
11935;SDS011;6027;48.576;9.180;2022-11-20T10:33:25;1.93;;;1.57;;
11935;SDS011;6027;48.576;9.180;2022-11-20T10:38:49;2.60;;;2.40;;
11935;SDS011;6027;48.576;9.180;2022-11-20T10:41:26;2.57;;;1.70;;
11935;SDS011;6027;48.576;9.180;2022-11-20T10:44:01;1.30;;;1.20;;
11935;SDS011;6027;48.576;9.180;2022-11-20T10:46:38;1.47;;;1.27;;
11935;SDS011;6027;48.576;9.180;2022-11-20T10:49:18;2.30;;;1.43;;
11935;SDS011;6027;48.576;9.180;2022-11-20T10:52:00;2.30;;;1.40;;
11935;SDS011;6027;48.576;9.180;2022-11-20T11:00:11;1.60;;;1.50;;
11935;SDS011;6027;48.576;9.180;2022-11-20T11:02:48;1.30;;;1.20;;
11935;SDS011;6027;48.576;9.180;2022-11-20T11:05:25;3.20;;;2.33;;
11935;SDS011;6027;48.576;9.180;2022-11-20T11:08:14;1.20;;;1.10;;
11935;SDS011;6027;48.576;9.180;2022-11-20T11:13:07;1.27;;;1.17;;
11935;SDS011;6027;48.576;9.180;2022-11-20T11:15:43;2.50;;;1.33;;
11935;SDS011;6027;48.576;9.180;2022-11-20T11:18:10;2.27;;;1.57;;
11935;SDS011;6027;48.576;9.180;2022-11-20T11:20:36;1.47;;;1.20;;
11935;SDS011;6027;48.576;9.180;2022-11-20T11:23:02;1.60;;;1.50;;
11935;SDS011;6027;48.576;9.180;2022-11-20T11:28:00;2.53;;;1.80;;
11935;SDS011;6027;48.576;9.180;2022-11-20T11:30:29;1.27;;;1.10;;
11935;SDS011;6027;48.576;9.180;2022-11-20T11:33:09;1.60;;;1.23;;
11935;SDS011;6027;48.576;9.180;2022-11-20T11:35:46;1.30;;;1.20;;
11935;SDS011;6027;48.576;9.180;2022-11-20T11:38:15;2.07;;;1.60;;
11935;SDS011;6027;48.576;9.180;2022-11-20T11:40:44;3.13;;;2.43;;
11935;SDS011;6027;48.576;9.180;2022-11-20T11:43:22;3.10;;;1.50;;
11935;SDS011;6027;48.576;9.180;2022-11-20T11:46:28;1.87;;;1.70;;
11935;SDS011;6027;48.576;9.180;2022-11-20T11:51:22;2.17;;;1.10;;
11935;SDS011;6027;48.576;9.180;2022-11-20T11:53:51;2.37;;;1.43;;
11935;SDS011;6027;48.576;9.180;2022-11-20T11:56:17;1.67;;;1.20;;
11935;SDS011;6027;48.576;9.180;2022-11-20T11:58:47;3.10;;;1.63;;
11935;SDS011;6027;48.576;9.180;2022-11-20T12:06:40;1.53;;;1.00;;
11935;SDS011;6027;48.576;9.180;2022-11-20T12:09:10;0.73;;;0.70;;
11935;SDS011;6027;48.576;9.180;2022-11-20T12:11:43;3.03;;;1.03;;
11935;SDS011;6027;48.576;9.180;2022-11-20T12:14:22;1.27;;;0.80;;
11935;SDS011;6027;48.576;9.180;2022-11-20T12:16:52;1.77;;;0.90;;
11935;SDS011;6027;48.576;9.180;2022-11-20T12:19:19;1.03;;;0.83;;
11935;SDS011;6027;48.576;9.180;2022-11-20T12:21:54;1.03;;;0.80;;
11935;SDS011;6027;48.576;9.180;2022-11-20T12:29:47;3.27;;;1.50;;
11935;SDS011;6027;48.576;9.180;2022-11-20T12:35:20;2.20;;;1.00;;
11935;SDS011;6027;48.576;9.180;2022-11-20T12:43:19;2.33;;;1.70;;
11935;SDS011;6027;48.576;9.180;2022-11-20T12:46:11;1.57;;;0.97;;
11935;SDS011;6027;48.576;9.180;2022-11-20T13:00:18;1.63;;;0.80;;
11935;SDS011;6027;48.576;9.180;2022-11-20T13:03:00;2.00;;;0.90;;
11935;SDS011;6027;48.576;9.180;2022-11-20T13:06:02;1.10;;;0.73;;
11935;SDS011;6027;48.576;9.180;2022-11-20T13:11:12;2.13;;;0.90;;
11935;SDS011;6027;48.576;9.180;2022-11-20T13:16:14;3.37;;;1.30;;
11935;SDS011;6027;48.576;9.180;2022-11-20T13:18:42;4.07;;;1.20;;
11935;SDS011;6027;48.576;9.180;2022-11-20T13:21:52;1.50;;;0.90;;
11935;SDS011;6027;48.576;9.180;2022-11-20T13:24:06;1.20;;;0.80;;
11935;SDS011;6027;48.576;9.180;2022-11-20T13:26:45;1.10;;;0.90;;
11935;SDS011;6027;48.576;9.180;2022-11-20T13:29:12;1.33;;;1.00;;
11935;SDS011;6027;48.576;9.180;2022-11-20T13:31:43;1.30;;;1.00;;
11935;SDS011;6027;48.576;9.180;2022-11-20T13:34:22;1.93;;;1.00;;
11935;SDS011;6027;48.576;9.180;2022-11-20T13:36:50;1.67;;;0.97;;
11935;SDS011;6027;48.576;9.180;2022-11-20T13:39:27;1.87;;;0.90;;
11935;SDS011;6027;48.576;9.180;2022-11-20T13:41:56;1.43;;;0.90;;
11935;SDS011;6027;48.576;9.180;2022-11-20T13:44:25;1.57;;;1.10;;
11935;SDS011;6027;48.576;9.180;2022-11-20T13:46:55;1.33;;;1.20;;
11935;SDS011;6027;48.576;9.180;2022-11-20T13:49:29;1.77;;;1.10;;
11935;SDS011;6027;48.576;9.180;2022-11-20T13:58:28;2.03;;;1.20;;
11935;SDS011;6027;48.576;9.180;2022-11-20T14:00:29;2.70;;;1.80;;
11935;SDS011;6027;48.576;9.180;2022-11-20T14:03:09;2.10;;;1.30;;
11935;SDS011;6027;48.576;9.180;2022-11-20T14:05:40;3.27;;;1.83;;
11935;SDS011;6027;48.576;9.180;2022-11-20T14:08:37;1.17;;;0.93;;
11935;SDS011;6027;48.576;9.180;2022-11-20T14:16:40;1.00;;;0.80;;
11935;SDS011;6027;48.576;9.180;2022-11-20T14:21:52;1.73;;;1.10;;
11935;SDS011;6027;48.576;9.180;2022-11-20T14:24:23;1.77;;;1.00;;
11935;SDS011;6027;48.576;9.180;2022-11-20T14:26:50;1.33;;;1.00;;
11935;SDS011;6027;48.576;9.180;2022-11-20T14:29:17;1.53;;;1.27;;
11935;SDS011;6027;48.576;9.180;2022-11-20T14:31:45;2.10;;;1.67;;
11935;SDS011;6027;48.576;9.180;2022-11-20T14:34:30;5.13;;;3.70;;
11935;SDS011;6027;48.576;9.180;2022-11-20T14:36:59;6.57;;;4.70;;
11935;SDS011;6027;48.576;9.180;2022-11-20T14:39:29;7.63;;;6.30;;
11935;SDS011;6027;48.576;9.180;2022-11-20T14:41:57;1.83;;;1.50;;
11935;SDS011;6027;48.576;9.180;2022-11-20T14:44:25;2.17;;;1.00;;
11935;SDS011;6027;48.576;9.180;2022-11-20T14:46:54;1.67;;;0.73;;
11935;SDS011;6027;48.576;9.180;2022-11-20T14:49:20;1.87;;;0.90;;
11935;SDS011;6027;48.576;9.180;2022-11-20T14:51:46;1.33;;;0.97;;
11935;SDS011;6027;48.576;9.180;2022-11-20T14:54:22;2.73;;;1.03;;
11935;SDS011;6027;48.576;9.180;2022-11-20T14:56:55;1.10;;;0.70;;
11935;SDS011;6027;48.576;9.180;2022-11-20T14:59:25;0.97;;;0.80;;
11935;SDS011;6027;48.576;9.180;2022-11-20T15:02:03;1.20;;;1.10;;
11935;SDS011;6027;48.576;9.180;2022-11-20T15:04:30;1.83;;;1.40;;
11935;SDS011;6027;48.576;9.180;2022-11-20T15:06:57;2.03;;;1.57;;
11935;SDS011;6027;48.576;9.180;2022-11-20T15:09:24;4.23;;;2.83;;
11935;SDS011;6027;48.576;9.180;2022-11-20T15:11:54;2.30;;;1.47;;
11935;SDS011;6027;48.576;9.180;2022-11-20T15:14:22;2.83;;;2.13;;
11935;SDS011;6027;48.576;9.180;2022-11-20T15:16:48;2.10;;;1.40;;
11935;SDS011;6027;48.576;9.180;2022-11-20T15:19:21;2.17;;;1.10;;
11935;SDS011;6027;48.576;9.180;2022-11-20T15:21:49;2.00;;;1.10;;
11935;SDS011;6027;48.576;9.180;2022-11-20T15:24:15;1.53;;;1.17;;
11935;SDS011;6027;48.576;9.180;2022-11-20T15:26:41;2.57;;;1.10;;
11935;SDS011;6027;48.576;9.180;2022-11-20T15:29:08;1.97;;;1.23;;
11935;SDS011;6027;48.576;9.180;2022-11-20T15:31:36;2.20;;;1.60;;
11935;SDS011;6027;48.576;9.180;2022-11-20T15:34:02;2.37;;;1.33;;
11935;SDS011;6027;48.576;9.180;2022-11-20T15:36:28;4.03;;;2.10;;
11935;SDS011;6027;48.576;9.180;2022-11-20T15:38:53;2.93;;;1.93;;
11935;SDS011;6027;48.576;9.180;2022-11-20T15:41:20;4.03;;;2.67;;
11935;SDS011;6027;48.576;9.180;2022-11-20T15:43:45;4.63;;;2.90;;
11935;SDS011;6027;48.576;9.180;2022-11-20T15:46:12;4.23;;;3.27;;
11935;SDS011;6027;48.576;9.180;2022-11-20T15:48:41;8.97;;;5.30;;
11935;SDS011;6027;48.576;9.180;2022-11-20T15:53:34;9.67;;;6.83;;
11935;SDS011;6027;48.576;9.180;2022-11-20T15:56:00;13.90;;;8.97;;
11935;SDS011;6027;48.576;9.180;2022-11-20T15:58:26;18.63;;;9.90;;
11935;SDS011;6027;48.576;9.180;2022-11-20T16:00:52;22.47;;;10.80;;
11935;SDS011;6027;48.576;9.180;2022-11-20T16:03:17;14.73;;;7.73;;
11935;SDS011;6027;48.576;9.180;2022-11-20T16:05:43;13.07;;;7.50;;
11935;SDS011;6027;48.576;9.180;2022-11-20T16:08:09;23.43;;;17.33;;
11935;SDS011;6027;48.576;9.180;2022-11-20T16:10:35;50.30;;;38.37;;
11935;SDS011;6027;48.576;9.180;2022-11-20T16:13:01;36.43;;;27.30;;
11935;SDS011;6027;48.576;9.180;2022-11-20T16:15:46;30.73;;;24.87;;
11935;SDS011;6027;48.576;9.180;2022-11-20T16:18:18;34.70;;;26.17;;
11935;SDS011;6027;48.576;9.180;2022-11-20T16:20:45;23.70;;;18.30;;
11935;SDS011;6027;48.576;9.180;2022-11-20T16:23:12;27.27;;;22.73;;
11935;SDS011;6027;48.576;9.180;2022-11-20T16:25:37;25.63;;;22.83;;
11935;SDS011;6027;48.576;9.180;2022-11-20T16:28:03;21.67;;;18.07;;
11935;SDS011;6027;48.576;9.180;2022-11-20T16:30:30;10.50;;;9.40;;
11935;SDS011;6027;48.576;9.180;2022-11-20T16:32:56;14.43;;;11.87;;
11935;SDS011;6027;48.576;9.180;2022-11-20T16:35:22;6.87;;;4.80;;
11935;SDS011;6027;48.576;9.180;2022-11-20T16:37:47;3.30;;;2.30;;
11935;SDS011;6027;48.576;9.180;2022-11-20T16:40:13;3.90;;;2.43;;
11935;SDS011;6027;48.576;9.180;2022-11-20T16:42:38;9.03;;;5.87;;
11935;SDS011;6027;48.576;9.180;2022-11-20T16:45:04;3.97;;;2.87;;
11935;SDS011;6027;48.576;9.180;2022-11-20T16:47:33;6.97;;;3.90;;
11935;SDS011;6027;48.576;9.180;2022-11-20T16:49:59;4.03;;;3.30;;